sensor_id;sensor_type;location;lat;lon;timestamp;P1;durP1;ratioP1;P2;durP2;ratioP2
3845;SDS011;1938;50.812;7.738;2022-09-17T00:00:34;23.80;;;9.00;;
3845;SDS011;1938;50.812;7.738;2022-09-17T00:02:59;14.57;;;9.33;;
3845;SDS011;1938;50.812;7.738;2022-09-17T00:05:26;20.67;;;9.90;;
3845;SDS011;1938;50.812;7.738;2022-09-17T00:07:51;13.67;;;8.87;;
3845;SDS011;1938;50.812;7.738;2022-09-17T00:10:18;22.90;;;11.43;;
3845;SDS011;1938;50.812;7.738;2022-09-17T00:12:45;20.20;;;9.00;;
3845;SDS011;1938;50.812;7.738;2022-09-17T00:15:11;16.80;;;8.57;;
3845;SDS011;1938;50.812;7.738;2022-09-17T00:17:37;21.13;;;10.13;;
3845;SDS011;1938;50.812;7.738;2022-09-17T00:20:03;16.23;;;8.43;;
3845;SDS011;1938;50.812;7.738;2022-09-17T00:22:32;31.97;;;10.10;;
3845;SDS011;1938;50.812;7.738;2022-09-17T00:24:57;19.20;;;9.00;;
3845;SDS011;1938;50.812;7.738;2022-09-17T00:27:23;22.27;;;10.90;;
3845;SDS011;1938;50.812;7.738;2022-09-17T00:29:48;17.53;;;10.80;;
3845;SDS011;1938;50.812;7.738;2022-09-17T00:32:14;21.07;;;10.70;;
3845;SDS011;1938;50.812;7.738;2022-09-17T00:34:39;21.33;;;10.37;;
3845;SDS011;1938;50.812;7.738;2022-09-17T00:37:07;16.60;;;10.20;;
3845;SDS011;1938;50.812;7.738;2022-09-17T00:39:32;31.63;;;12.00;;
3845;SDS011;1938;50.812;7.738;2022-09-17T00:41:58;21.00;;;10.93;;
3845;SDS011;1938;50.812;7.738;2022-09-17T00:47:33;16.77;;;10.83;;
3845;SDS011;1938;50.812;7.738;2022-09-17T00:50:05;22.03;;;10.37;;
3845;SDS011;1938;50.812;7.738;2022-09-17T00:52:32;32.77;;;10.30;;
3845;SDS011;1938;50.812;7.738;2022-09-17T00:57:42;20.63;;;9.97;;
3845;SDS011;1938;50.812;7.738;2022-09-17T01:00:10;17.47;;;10.43;;
3845;SDS011;1938;50.812;7.738;2022-09-17T01:02:38;20.80;;;11.00;;
3845;SDS011;1938;50.812;7.738;2022-09-17T01:05:05;24.30;;;10.90;;
3845;SDS011;1938;50.812;7.738;2022-09-17T01:07:35;25.00;;;12.83;;
3845;SDS011;1938;50.812;7.738;2022-09-17T01:13:04;23.83;;;12.03;;
3845;SDS011;1938;50.812;7.738;2022-09-17T01:15:56;18.07;;;10.80;;
3845;SDS011;1938;50.812;7.738;2022-09-17T01:21:21;21.90;;;11.93;;
3845;SDS011;1938;50.812;7.738;2022-09-17T01:32:27;25.30;;;14.07;;
3845;SDS011;1938;50.812;7.738;2022-09-17T01:35:16;24.83;;;13.00;;
3845;SDS011;1938;50.812;7.738;2022-09-17T01:38:00;19.03;;;11.97;;
3845;SDS011;1938;50.812;7.738;2022-09-17T01:48:46;21.17;;;13.17;;
3845;SDS011;1938;50.812;7.738;2022-09-17T01:51:23;22.67;;;12.43;;
3845;SDS011;1938;50.812;7.738;2022-09-17T01:53:52;29.80;;;13.47;;
3845;SDS011;1938;50.812;7.738;2022-09-17T01:56:37;18.43;;;12.00;;
3845;SDS011;1938;50.812;7.738;2022-09-17T01:59:08;25.73;;;12.47;;
3845;SDS011;1938;50.812;7.738;2022-09-17T02:01:40;21.90;;;12.63;;
3845;SDS011;1938;50.812;7.738;2022-09-17T02:04:10;22.97;;;12.40;;
3845;SDS011;1938;50.812;7.738;2022-09-17T02:06:42;22.23;;;11.83;;
3845;SDS011;1938;50.812;7.738;2022-09-17T02:09:17;21.10;;;12.53;;
3845;SDS011;1938;50.812;7.738;2022-09-17T02:11:49;20.50;;;12.30;;
3845;SDS011;1938;50.812;7.738;2022-09-17T02:14:24;20.33;;;12.23;;
3845;SDS011;1938;50.812;7.738;2022-09-17T02:16:57;23.53;;;12.87;;
3845;SDS011;1938;50.812;7.738;2022-09-17T02:19:29;29.13;;;13.97;;
3845;SDS011;1938;50.812;7.738;2022-09-17T02:22:02;19.90;;;12.03;;
3845;SDS011;1938;50.812;7.738;2022-09-17T02:24:43;21.47;;;11.70;;
3845;SDS011;1938;50.812;7.738;2022-09-17T02:27:25;18.70;;;10.53;;
3845;SDS011;1938;50.812;7.738;2022-09-17T02:30:01;25.87;;;10.10;;
3845;SDS011;1938;50.812;7.738;2022-09-17T02:32:27;23.73;;;10.17;;
3845;SDS011;1938;50.812;7.738;2022-09-17T02:34:53;22.40;;;10.87;;
3845;SDS011;1938;50.812;7.738;2022-09-17T02:37:18;16.17;;;10.17;;
3845;SDS011;1938;50.812;7.738;2022-09-17T02:39:44;18.07;;;9.30;;
3845;SDS011;1938;50.812;7.738;2022-09-17T02:45:11;14.53;;;8.70;;
3845;SDS011;1938;50.812;7.738;2022-09-17T02:48:03;13.40;;;8.83;;
3845;SDS011;1938;50.812;7.738;2022-09-17T03:01:41;13.87;;;9.00;;
3845;SDS011;1938;50.812;7.738;2022-09-17T03:04:11;19.63;;;7.73;;
3845;SDS011;1938;50.812;7.738;2022-09-17T03:06:41;11.20;;;8.47;;
3845;SDS011;1938;50.812;7.738;2022-09-17T03:09:09;13.20;;;8.83;;
3845;SDS011;1938;50.812;7.738;2022-09-17T03:11:34;16.60;;;8.37;;
3845;SDS011;1938;50.812;7.738;2022-09-17T03:14:00;13.33;;;8.23;;
3845;SDS011;1938;50.812;7.738;2022-09-17T03:16:26;22.73;;;9.70;;
3845;SDS011;1938;50.812;7.738;2022-09-17T03:18:51;13.10;;;8.90;;
3845;SDS011;1938;50.812;7.738;2022-09-17T03:21:17;18.10;;;9.53;;
3845;SDS011;1938;50.812;7.738;2022-09-17T03:23:42;15.30;;;8.70;;
3845;SDS011;1938;50.812;7.738;2022-09-17T03:26:08;17.73;;;9.60;;
3845;SDS011;1938;50.812;7.738;2022-09-17T03:28:34;18.10;;;10.33;;
3845;SDS011;1938;50.812;7.738;2022-09-17T03:31:00;27.80;;;10.83;;
3845;SDS011;1938;50.812;7.738;2022-09-17T03:33:25;20.80;;;10.63;;
3845;SDS011;1938;50.812;7.738;2022-09-17T03:35:51;16.97;;;11.00;;
3845;SDS011;1938;50.812;7.738;2022-09-17T03:38:16;22.50;;;11.23;;
3845;SDS011;1938;50.812;7.738;2022-09-17T03:40:42;19.57;;;12.47;;
3845;SDS011;1938;50.812;7.738;2022-09-17T03:43:08;22.30;;;10.17;;
3845;SDS011;1938;50.812;7.738;2022-09-17T03:45:34;23.87;;;13.10;;
3845;SDS011;1938;50.812;7.738;2022-09-17T03:47:59;30.83;;;13.43;;
3845;SDS011;1938;50.812;7.738;2022-09-17T03:50:25;29.63;;;13.10;;
3845;SDS011;1938;50.812;7.738;2022-09-17T03:52:51;31.30;;;14.10;;
3845;SDS011;1938;50.812;7.738;2022-09-17T03:55:16;24.87;;;13.30;;
3845;SDS011;1938;50.812;7.738;2022-09-17T03:57:42;31.90;;;15.40;;
3845;SDS011;1938;50.812;7.738;2022-09-17T04:00:08;38.00;;;15.83;;
3845;SDS011;1938;50.812;7.738;2022-09-17T04:02:36;30.30;;;14.43;;
3845;SDS011;1938;50.812;7.738;2022-09-17T04:05:01;46.07;;;15.47;;
3845;SDS011;1938;50.812;7.738;2022-09-17T04:07:27;28.27;;;14.30;;
3845;SDS011;1938;50.812;7.738;2022-09-17T04:09:53;28.10;;;15.57;;
3845;SDS011;1938;50.812;7.738;2022-09-17T04:12:18;28.73;;;14.93;;
3845;SDS011;1938;50.812;7.738;2022-09-17T04:14:44;32.67;;;15.03;;
3845;SDS011;1938;50.812;7.738;2022-09-17T04:17:09;23.77;;;15.40;;
3845;SDS011;1938;50.812;7.738;2022-09-17T04:19:36;25.37;;;15.50;;
3845;SDS011;1938;50.812;7.738;2022-09-17T04:22:01;27.50;;;14.57;;
3845;SDS011;1938;50.812;7.738;2022-09-17T04:24:27;30.20;;;15.70;;
3845;SDS011;1938;50.812;7.738;2022-09-17T04:26:52;44.73;;;17.17;;
3845;SDS011;1938;50.812;7.738;2022-09-17T04:29:19;26.57;;;15.27;;
3845;SDS011;1938;50.812;7.738;2022-09-17T04:31:44;28.57;;;16.27;;
3845;SDS011;1938;50.812;7.738;2022-09-17T04:34:10;31.13;;;15.07;;
3845;SDS011;1938;50.812;7.738;2022-09-17T04:36:35;31.73;;;15.90;;
3845;SDS011;1938;50.812;7.738;2022-09-17T04:39:01;27.17;;;13.17;;
3845;SDS011;1938;50.812;7.738;2022-09-17T04:41:26;23.43;;;13.13;;
3845;SDS011;1938;50.812;7.738;2022-09-17T04:43:53;65.07;;;33.07;;
3845;SDS011;1938;50.812;7.738;2022-09-17T04:46:18;27.17;;;14.90;;
3845;SDS011;1938;50.812;7.738;2022-09-17T04:48:44;26.30;;;13.60;;
3845;SDS011;1938;50.812;7.738;2022-09-17T04:51:10;25.53;;;11.93;;
3845;SDS011;1938;50.812;7.738;2022-09-17T04:53:35;26.43;;;13.20;;
3845;SDS011;1938;50.812;7.738;2022-09-17T04:56:02;20.97;;;11.83;;
3845;SDS011;1938;50.812;7.738;2022-09-17T04:58:28;22.60;;;12.30;;
3845;SDS011;1938;50.812;7.738;2022-09-17T05:00:56;29.30;;;12.83;;
3845;SDS011;1938;50.812;7.738;2022-09-17T05:03:22;24.30;;;11.63;;
3845;SDS011;1938;50.812;7.738;2022-09-17T05:05:48;24.10;;;12.43;;
3845;SDS011;1938;50.812;7.738;2022-09-17T05:08:14;27.63;;;11.73;;
3845;SDS011;1938;50.812;7.738;2022-09-17T05:10:39;27.50;;;11.80;;
3845;SDS011;1938;50.812;7.738;2022-09-17T05:13:05;20.23;;;11.60;;
3845;SDS011;1938;50.812;7.738;2022-09-17T05:15:30;34.53;;;12.47;;
3845;SDS011;1938;50.812;7.738;2022-09-17T05:17:56;25.17;;;11.87;;
3845;SDS011;1938;50.812;7.738;2022-09-17T05:20:22;29.77;;;13.50;;
3845;SDS011;1938;50.812;7.738;2022-09-17T05:22:48;24.17;;;11.53;;
3845;SDS011;1938;50.812;7.738;2022-09-17T05:25:16;21.20;;;10.90;;
3845;SDS011;1938;50.812;7.738;2022-09-17T05:27:43;29.73;;;11.97;;
3845;SDS011;1938;50.812;7.738;2022-09-17T05:30:11;34.00;;;13.50;;
3845;SDS011;1938;50.812;7.738;2022-09-17T05:32:37;20.30;;;10.77;;
3845;SDS011;1938;50.812;7.738;2022-09-17T05:35:03;25.17;;;12.70;;
3845;SDS011;1938;50.812;7.738;2022-09-17T05:37:29;28.73;;;12.73;;
3845;SDS011;1938;50.812;7.738;2022-09-17T05:39:55;40.67;;;11.90;;
3845;SDS011;1938;50.812;7.738;2022-09-17T05:42:21;21.23;;;12.17;;
3845;SDS011;1938;50.812;7.738;2022-09-17T05:44:46;22.20;;;12.07;;
3845;SDS011;1938;50.812;7.738;2022-09-17T05:47:12;32.23;;;12.33;;
3845;SDS011;1938;50.812;7.738;2022-09-17T05:49:38;25.07;;;11.23;;
3845;SDS011;1938;50.812;7.738;2022-09-17T05:52:03;22.10;;;13.03;;
3845;SDS011;1938;50.812;7.738;2022-09-17T05:54:29;23.10;;;11.00;;
3845;SDS011;1938;50.812;7.738;2022-09-17T05:56:54;27.13;;;12.20;;
3845;SDS011;1938;50.812;7.738;2022-09-17T05:59:20;23.57;;;11.97;;
3845;SDS011;1938;50.812;7.738;2022-09-17T06:01:46;20.67;;;10.40;;
3845;SDS011;1938;50.812;7.738;2022-09-17T06:04:12;20.63;;;11.70;;
3845;SDS011;1938;50.812;7.738;2022-09-17T06:06:37;22.67;;;11.10;;
3845;SDS011;1938;50.812;7.738;2022-09-17T06:09:06;23.40;;;10.90;;
3845;SDS011;1938;50.812;7.738;2022-09-17T06:11:32;15.47;;;9.47;;
3845;SDS011;1938;50.812;7.738;2022-09-17T06:13:58;17.73;;;9.87;;
3845;SDS011;1938;50.812;7.738;2022-09-17T06:16:24;18.47;;;8.63;;
3845;SDS011;1938;50.812;7.738;2022-09-17T06:18:50;17.47;;;8.53;;
3845;SDS011;1938;50.812;7.738;2022-09-17T06:21:17;27.13;;;11.10;;
3845;SDS011;1938;50.812;7.738;2022-09-17T06:23:43;18.83;;;9.73;;
3845;SDS011;1938;50.812;7.738;2022-09-17T06:26:10;16.07;;;8.47;;
3845;SDS011;1938;50.812;7.738;2022-09-17T06:28:36;28.17;;;9.40;;
3845;SDS011;1938;50.812;7.738;2022-09-17T06:31:02;22.13;;;8.90;;
3845;SDS011;1938;50.812;7.738;2022-09-17T06:33:30;16.93;;;9.17;;
3845;SDS011;1938;50.812;7.738;2022-09-17T06:35:59;23.20;;;10.00;;
3845;SDS011;1938;50.812;7.738;2022-09-17T06:38:30;15.20;;;8.43;;
3845;SDS011;1938;50.812;7.738;2022-09-17T06:40:57;19.93;;;8.37;;
3845;SDS011;1938;50.812;7.738;2022-09-17T06:43:23;15.40;;;9.10;;
3845;SDS011;1938;50.812;7.738;2022-09-17T06:48:18;14.90;;;6.97;;
3845;SDS011;1938;50.812;7.738;2022-09-17T06:50:44;14.30;;;8.30;;
3845;SDS011;1938;50.812;7.738;2022-09-17T06:53:10;14.43;;;6.93;;
3845;SDS011;1938;50.812;7.738;2022-09-17T06:55:35;13.87;;;7.47;;
3845;SDS011;1938;50.812;7.738;2022-09-17T06:58:01;17.50;;;7.27;;
3845;SDS011;1938;50.812;7.738;2022-09-17T07:00:26;25.83;;;7.80;;
3845;SDS011;1938;50.812;7.738;2022-09-17T07:02:56;21.53;;;7.80;;
3845;SDS011;1938;50.812;7.738;2022-09-17T07:05:22;19.30;;;8.13;;
3845;SDS011;1938;50.812;7.738;2022-09-17T07:07:48;25.17;;;7.87;;
3845;SDS011;1938;50.812;7.738;2022-09-17T07:10:14;27.43;;;9.20;;
3845;SDS011;1938;50.812;7.738;2022-09-17T07:12:41;17.77;;;8.73;;
3845;SDS011;1938;50.812;7.738;2022-09-17T07:15:07;21.20;;;8.50;;
3845;SDS011;1938;50.812;7.738;2022-09-17T07:17:35;21.20;;;9.27;;
3845;SDS011;1938;50.812;7.738;2022-09-17T07:20:02;19.53;;;9.00;;
3845;SDS011;1938;50.812;7.738;2022-09-17T07:22:27;16.87;;;9.50;;
3845;SDS011;1938;50.812;7.738;2022-09-17T07:24:53;21.17;;;7.83;;
3845;SDS011;1938;50.812;7.738;2022-09-17T07:27:18;13.60;;;7.60;;
3845;SDS011;1938;50.812;7.738;2022-09-17T07:29:45;16.00;;;7.70;;
3845;SDS011;1938;50.812;7.738;2022-09-17T07:32:10;20.83;;;9.33;;
3845;SDS011;1938;50.812;7.738;2022-09-17T07:34:36;15.13;;;7.33;;
3845;SDS011;1938;50.812;7.738;2022-09-17T07:37:01;12.97;;;7.63;;
3845;SDS011;1938;50.812;7.738;2022-09-17T07:39:27;18.30;;;7.17;;
3845;SDS011;1938;50.812;7.738;2022-09-17T07:41:53;16.43;;;8.57;;
3845;SDS011;1938;50.812;7.738;2022-09-17T07:44:19;14.90;;;7.33;;
3845;SDS011;1938;50.812;7.738;2022-09-17T07:46:46;18.17;;;8.60;;
3845;SDS011;1938;50.812;7.738;2022-09-17T07:49:11;11.83;;;6.90;;
3845;SDS011;1938;50.812;7.738;2022-09-17T07:51:37;13.60;;;6.67;;
3845;SDS011;1938;50.812;7.738;2022-09-17T07:54:02;16.03;;;6.63;;
3845;SDS011;1938;50.812;7.738;2022-09-17T07:56:28;17.50;;;6.80;;
3845;SDS011;1938;50.812;7.738;2022-09-17T07:58:54;11.70;;;6.03;;
3845;SDS011;1938;50.812;7.738;2022-09-17T08:01:20;12.27;;;6.20;;
3845;SDS011;1938;50.812;7.738;2022-09-17T08:03:50;24.03;;;6.20;;
3845;SDS011;1938;50.812;7.738;2022-09-17T08:06:18;13.47;;;5.47;;
3845;SDS011;1938;50.812;7.738;2022-09-17T08:08:46;14.03;;;5.67;;
3845;SDS011;1938;50.812;7.738;2022-09-17T08:11:13;10.20;;;5.10;;
3845;SDS011;1938;50.812;7.738;2022-09-17T08:13:42;9.50;;;4.77;;
3845;SDS011;1938;50.812;7.738;2022-09-17T08:16:11;15.43;;;4.57;;
3845;SDS011;1938;50.812;7.738;2022-09-17T08:18:37;17.03;;;4.50;;
3845;SDS011;1938;50.812;7.738;2022-09-17T08:21:04;11.40;;;4.63;;
3845;SDS011;1938;50.812;7.738;2022-09-17T08:23:30;16.90;;;4.10;;
3845;SDS011;1938;50.812;7.738;2022-09-17T08:25:58;14.27;;;4.40;;
3845;SDS011;1938;50.812;7.738;2022-09-17T08:28:25;8.60;;;4.30;;
3845;SDS011;1938;50.812;7.738;2022-09-17T08:30:52;10.20;;;3.63;;
3845;SDS011;1938;50.812;7.738;2022-09-17T08:33:19;10.13;;;3.90;;
3845;SDS011;1938;50.812;7.738;2022-09-17T08:35:51;17.60;;;4.80;;
3845;SDS011;1938;50.812;7.738;2022-09-17T08:38:18;11.70;;;3.60;;
3845;SDS011;1938;50.812;7.738;2022-09-17T08:41:31;8.23;;;4.10;;
3845;SDS011;1938;50.812;7.738;2022-09-17T08:46:51;6.90;;;3.50;;
3845;SDS011;1938;50.812;7.738;2022-09-17T08:49:31;13.50;;;3.60;;
3845;SDS011;1938;50.812;7.738;2022-09-17T08:52:17;11.43;;;4.80;;
3845;SDS011;1938;50.812;7.738;2022-09-17T08:57:53;8.17;;;3.47;;
3845;SDS011;1938;50.812;7.738;2022-09-17T09:00:42;11.33;;;3.53;;
3845;SDS011;1938;50.812;7.738;2022-09-17T09:06:01;15.33;;;3.70;;
3845;SDS011;1938;50.812;7.738;2022-09-17T09:11:22;9.50;;;3.10;;
3845;SDS011;1938;50.812;7.738;2022-09-17T09:13:53;11.87;;;3.53;;
3845;SDS011;1938;50.812;7.738;2022-09-17T09:16:24;15.83;;;5.20;;
3845;SDS011;1938;50.812;7.738;2022-09-17T09:19:03;12.13;;;2.50;;
3845;SDS011;1938;50.812;7.738;2022-09-17T09:21:45;13.83;;;2.73;;
3845;SDS011;1938;50.812;7.738;2022-09-17T09:24:23;9.93;;;3.13;;
3845;SDS011;1938;50.812;7.738;2022-09-17T09:27:14;7.60;;;2.40;;
3845;SDS011;1938;50.812;7.738;2022-09-17T09:35:17;9.27;;;2.80;;
3845;SDS011;1938;50.812;7.738;2022-09-17T09:37:51;8.07;;;2.40;;
3845;SDS011;1938;50.812;7.738;2022-09-17T09:40:32;8.77;;;2.00;;
3845;SDS011;1938;50.812;7.738;2022-09-17T09:43:13;7.03;;;2.10;;
3845;SDS011;1938;50.812;7.738;2022-09-17T09:48:22;12.70;;;2.50;;
3845;SDS011;1938;50.812;7.738;2022-09-17T09:59:17;7.63;;;2.23;;
3845;SDS011;1938;50.812;7.738;2022-09-17T10:01:43;19.00;;;2.77;;
3845;SDS011;1938;50.812;7.738;2022-09-17T10:04:20;9.90;;;2.17;;
3845;SDS011;1938;50.812;7.738;2022-09-17T10:06:51;11.93;;;2.83;;
3845;SDS011;1938;50.812;7.738;2022-09-17T10:09:19;13.13;;;2.47;;
3845;SDS011;1938;50.812;7.738;2022-09-17T10:14:40;7.00;;;2.30;;
3845;SDS011;1938;50.812;7.738;2022-09-17T10:17:15;14.30;;;2.47;;
3845;SDS011;1938;50.812;7.738;2022-09-17T10:22:29;12.20;;;2.17;;
3845;SDS011;1938;50.812;7.738;2022-09-17T10:25:02;9.20;;;1.60;;
3845;SDS011;1938;50.812;7.738;2022-09-17T10:27:29;8.07;;;1.93;;
3845;SDS011;1938;50.812;7.738;2022-09-17T10:30:00;6.30;;;1.60;;
3845;SDS011;1938;50.812;7.738;2022-09-17T10:32:32;9.90;;;2.13;;
3845;SDS011;1938;50.812;7.738;2022-09-17T10:34:58;7.50;;;1.97;;
3845;SDS011;1938;50.812;7.738;2022-09-17T10:37:44;7.10;;;2.27;;
3845;SDS011;1938;50.812;7.738;2022-09-17T10:42:43;10.13;;;1.90;;
3845;SDS011;1938;50.812;7.738;2022-09-17T10:47:51;5.47;;;1.30;;
3845;SDS011;1938;50.812;7.738;2022-09-17T10:50:23;4.30;;;1.27;;
3845;SDS011;1938;50.812;7.738;2022-09-17T10:52:53;10.50;;;1.67;;
3845;SDS011;1938;50.812;7.738;2022-09-17T10:58:03;5.53;;;1.20;;
3845;SDS011;1938;50.812;7.738;2022-09-17T11:00:41;3.60;;;1.27;;
3845;SDS011;1938;50.812;7.738;2022-09-17T11:06:21;4.23;;;1.90;;
3845;SDS011;1938;50.812;7.738;2022-09-17T11:23:04;5.90;;;1.47;;
3845;SDS011;1938;50.812;7.738;2022-09-17T11:25:50;6.37;;;1.40;;
3845;SDS011;1938;50.812;7.738;2022-09-17T11:36:49;5.93;;;1.83;;
3845;SDS011;1938;50.812;7.738;2022-09-17T11:39:24;5.67;;;1.93;;
3845;SDS011;1938;50.812;7.738;2022-09-17T11:42:12;7.60;;;1.57;;
3845;SDS011;1938;50.812;7.738;2022-09-17T11:47:48;6.40;;;1.40;;
3845;SDS011;1938;50.812;7.738;2022-09-17T11:50:38;9.43;;;2.10;;
3845;SDS011;1938;50.812;7.738;2022-09-17T11:53:24;4.50;;;1.60;;
3845;SDS011;1938;50.812;7.738;2022-09-17T11:56:03;5.40;;;1.30;;
3845;SDS011;1938;50.812;7.738;2022-09-17T11:58:42;4.27;;;1.50;;
3845;SDS011;1938;50.812;7.738;2022-09-17T12:01:19;7.17;;;1.80;;
3845;SDS011;1938;50.812;7.738;2022-09-17T12:06:41;5.73;;;1.80;;
3845;SDS011;1938;50.812;7.738;2022-09-17T12:09:15;4.00;;;1.67;;
3845;SDS011;1938;50.812;7.738;2022-09-17T12:11:50;7.50;;;1.70;;
3845;SDS011;1938;50.812;7.738;2022-09-17T12:14:28;7.03;;;1.73;;
3845;SDS011;1938;50.812;7.738;2022-09-17T12:17:02;28.33;;;2.07;;
3845;SDS011;1938;50.812;7.738;2022-09-17T12:19:37;5.40;;;1.87;;
3845;SDS011;1938;50.812;7.738;2022-09-17T12:22:16;4.20;;;2.53;;
3845;SDS011;1938;50.812;7.738;2022-09-17T12:24:50;5.47;;;1.67;;
3845;SDS011;1938;50.812;7.738;2022-09-17T12:30:11;2.80;;;1.30;;
3845;SDS011;1938;50.812;7.738;2022-09-17T12:38:14;5.90;;;1.77;;
3845;SDS011;1938;50.812;7.738;2022-09-17T12:43:54;5.27;;;1.67;;
3845;SDS011;1938;50.812;7.738;2022-09-17T13:00:10;4.60;;;1.60;;
3845;SDS011;1938;50.812;7.738;2022-09-17T13:10:50;4.90;;;1.07;;
3845;SDS011;1938;50.812;7.738;2022-09-17T13:16:26;4.07;;;1.43;;
3845;SDS011;1938;50.812;7.738;2022-09-17T13:22:07;2.57;;;1.30;;
3845;SDS011;1938;50.812;7.738;2022-09-17T13:24:44;4.23;;;1.27;;
3845;SDS011;1938;50.812;7.738;2022-09-17T13:27:19;2.40;;;0.90;;
3845;SDS011;1938;50.812;7.738;2022-09-17T13:37:38;2.40;;;1.10;;
3845;SDS011;1938;50.812;7.738;2022-09-17T13:40:23;6.90;;;1.40;;
3845;SDS011;1938;50.812;7.738;2022-09-17T13:42:52;2.30;;;1.00;;
3845;SDS011;1938;50.812;7.738;2022-09-17T13:45:21;2.70;;;1.33;;
3845;SDS011;1938;50.812;7.738;2022-09-17T13:47:49;5.80;;;1.67;;
3845;SDS011;1938;50.812;7.738;2022-09-17T13:50:36;4.83;;;1.50;;
3845;SDS011;1938;50.812;7.738;2022-09-17T13:58:21;6.00;;;1.40;;
3845;SDS011;1938;50.812;7.738;2022-09-17T14:03:44;2.73;;;1.00;;
3845;SDS011;1938;50.812;7.738;2022-09-17T14:13:53;3.50;;;1.30;;
3845;SDS011;1938;50.812;7.738;2022-09-17T14:16:30;3.03;;;1.00;;
3845;SDS011;1938;50.812;7.738;2022-09-17T14:32:50;10.73;;;1.60;;
3845;SDS011;1938;50.812;7.738;2022-09-17T14:35:43;4.30;;;1.30;;
3845;SDS011;1938;50.812;7.738;2022-09-17T14:38:21;6.27;;;1.30;;
3845;SDS011;1938;50.812;7.738;2022-09-17T14:46:33;8.10;;;1.37;;
3845;SDS011;1938;50.812;7.738;2022-09-17T14:51:55;5.00;;;1.20;;
3845;SDS011;1938;50.812;7.738;2022-09-17T14:54:22;2.53;;;1.07;;
3845;SDS011;1938;50.812;7.738;2022-09-17T14:56:56;3.80;;;1.10;;
3845;SDS011;1938;50.812;7.738;2022-09-17T14:59:28;4.60;;;1.10;;
3845;SDS011;1938;50.812;7.738;2022-09-17T15:01:57;5.20;;;1.20;;
3845;SDS011;1938;50.812;7.738;2022-09-17T15:04:24;2.50;;;1.13;;
3845;SDS011;1938;50.812;7.738;2022-09-17T15:06:51;5.20;;;1.30;;
3845;SDS011;1938;50.812;7.738;2022-09-17T15:09:21;3.43;;;1.40;;
3845;SDS011;1938;50.812;7.738;2022-09-17T15:11:48;4.07;;;1.27;;
3845;SDS011;1938;50.812;7.738;2022-09-17T15:14:18;4.77;;;1.33;;
3845;SDS011;1938;50.812;7.738;2022-09-17T15:16:50;3.70;;;1.10;;
3845;SDS011;1938;50.812;7.738;2022-09-17T15:19:22;8.40;;;1.40;;
3845;SDS011;1938;50.812;7.738;2022-09-17T15:21:53;5.77;;;1.60;;
3845;SDS011;1938;50.812;7.738;2022-09-17T15:24:40;5.10;;;1.60;;
3845;SDS011;1938;50.812;7.738;2022-09-17T15:29:37;6.93;;;1.70;;
3845;SDS011;1938;50.812;7.738;2022-09-17T15:32:07;5.73;;;1.50;;
3845;SDS011;1938;50.812;7.738;2022-09-17T15:34:35;6.83;;;1.50;;
3845;SDS011;1938;50.812;7.738;2022-09-17T15:37:02;3.60;;;1.20;;
3845;SDS011;1938;50.812;7.738;2022-09-17T15:39:42;5.17;;;1.53;;
3845;SDS011;1938;50.812;7.738;2022-09-17T15:44:51;4.13;;;1.10;;
3845;SDS011;1938;50.812;7.738;2022-09-17T15:47:33;7.03;;;1.50;;
3845;SDS011;1938;50.812;7.738;2022-09-17T15:52:46;4.87;;;3.10;;
3845;SDS011;1938;50.812;7.738;2022-09-17T15:55:31;3.53;;;1.43;;
3845;SDS011;1938;50.812;7.738;2022-09-17T15:58:24;5.83;;;1.40;;
3845;SDS011;1938;50.812;7.738;2022-09-17T16:08:47;7.17;;;1.63;;
3845;SDS011;1938;50.812;7.738;2022-09-17T16:11:20;5.70;;;1.73;;
3845;SDS011;1938;50.812;7.738;2022-09-17T16:13:48;3.60;;;1.47;;
3845;SDS011;1938;50.812;7.738;2022-09-17T16:16:15;4.53;;;1.37;;
3845;SDS011;1938;50.812;7.738;2022-09-17T16:18:43;3.50;;;1.20;;
3845;SDS011;1938;50.812;7.738;2022-09-17T16:21:15;5.23;;;1.27;;
3845;SDS011;1938;50.812;7.738;2022-09-17T16:23:41;3.57;;;1.13;;
3845;SDS011;1938;50.812;7.738;2022-09-17T16:26:40;3.70;;;1.07;;
3845;SDS011;1938;50.812;7.738;2022-09-17T16:29:15;7.63;;;1.60;;
3845;SDS011;1938;50.812;7.738;2022-09-17T16:31:41;8.40;;;1.90;;
3845;SDS011;1938;50.812;7.738;2022-09-17T16:34:08;11.40;;;1.50;;
3845;SDS011;1938;50.812;7.738;2022-09-17T16:36:34;5.73;;;1.30;;
3845;SDS011;1938;50.812;7.738;2022-09-17T16:39:00;4.00;;;1.20;;
3845;SDS011;1938;50.812;7.738;2022-09-17T16:41:25;3.40;;;1.60;;
3845;SDS011;1938;50.812;7.738;2022-09-17T16:43:51;5.17;;;1.40;;
3845;SDS011;1938;50.812;7.738;2022-09-17T16:46:17;6.13;;;1.73;;
3845;SDS011;1938;50.812;7.738;2022-09-17T16:48:42;3.00;;;1.27;;
3845;SDS011;1938;50.812;7.738;2022-09-17T16:51:10;5.07;;;1.93;;
3845;SDS011;1938;50.812;7.738;2022-09-17T16:53:37;4.83;;;1.70;;
3845;SDS011;1938;50.812;7.738;2022-09-17T16:56:07;5.73;;;2.00;;
3845;SDS011;1938;50.812;7.738;2022-09-17T16:58:33;8.07;;;1.80;;
3845;SDS011;1938;50.812;7.738;2022-09-17T17:01:06;8.10;;;1.80;;
3845;SDS011;1938;50.812;7.738;2022-09-17T17:03:33;11.63;;;1.73;;
3845;SDS011;1938;50.812;7.738;2022-09-17T17:05:58;8.47;;;1.63;;
3845;SDS011;1938;50.812;7.738;2022-09-17T17:08:24;4.20;;;1.47;;
3845;SDS011;1938;50.812;7.738;2022-09-17T17:10:49;3.93;;;1.50;;
3845;SDS011;1938;50.812;7.738;2022-09-17T17:13:15;4.47;;;1.60;;
3845;SDS011;1938;50.812;7.738;2022-09-17T17:15:41;5.57;;;1.23;;
3845;SDS011;1938;50.812;7.738;2022-09-17T17:18:06;5.10;;;1.80;;
3845;SDS011;1938;50.812;7.738;2022-09-17T17:20:35;5.23;;;1.40;;
3845;SDS011;1938;50.812;7.738;2022-09-17T17:23:01;2.70;;;1.30;;
3845;SDS011;1938;50.812;7.738;2022-09-17T17:25:26;3.00;;;1.27;;
3845;SDS011;1938;50.812;7.738;2022-09-17T17:27:53;3.97;;;2.10;;
3845;SDS011;1938;50.812;7.738;2022-09-17T17:30:19;4.07;;;1.40;;
3845;SDS011;1938;50.812;7.738;2022-09-17T17:32:49;3.80;;;1.57;;
3845;SDS011;1938;50.812;7.738;2022-09-17T17:35:17;3.90;;;1.10;;
3845;SDS011;1938;50.812;7.738;2022-09-17T17:37:43;3.53;;;1.50;;
3845;SDS011;1938;50.812;7.738;2022-09-17T17:40:09;7.20;;;2.13;;
3845;SDS011;1938;50.812;7.738;2022-09-17T17:42:35;4.40;;;1.70;;
3845;SDS011;1938;50.812;7.738;2022-09-17T17:45:04;3.10;;;1.30;;
3845;SDS011;1938;50.812;7.738;2022-09-17T17:47:32;2.87;;;1.00;;
3845;SDS011;1938;50.812;7.738;2022-09-17T17:49:58;12.40;;;3.30;;
3845;SDS011;1938;50.812;7.738;2022-09-17T17:52:23;5.03;;;1.40;;
3845;SDS011;1938;50.812;7.738;2022-09-17T17:54:49;3.53;;;1.67;;
3845;SDS011;1938;50.812;7.738;2022-09-17T17:57:14;3.90;;;1.40;;
3845;SDS011;1938;50.812;7.738;2022-09-17T17:59:40;4.73;;;1.10;;
3845;SDS011;1938;50.812;7.738;2022-09-17T18:02:06;3.77;;;1.80;;
3845;SDS011;1938;50.812;7.738;2022-09-17T18:04:31;3.23;;;1.43;;
3845;SDS011;1938;50.812;7.738;2022-09-17T18:06:57;8.30;;;1.80;;
3845;SDS011;1938;50.812;7.738;2022-09-17T18:09:23;7.80;;;2.00;;
3845;SDS011;1938;50.812;7.738;2022-09-17T18:11:49;3.70;;;1.80;;
3845;SDS011;1938;50.812;7.738;2022-09-17T18:14:15;3.23;;;1.53;;
3845;SDS011;1938;50.812;7.738;2022-09-17T18:16:40;4.20;;;1.83;;
3845;SDS011;1938;50.812;7.738;2022-09-17T18:19:06;2.77;;;1.30;;
3845;SDS011;1938;50.812;7.738;2022-09-17T18:21:33;4.90;;;1.90;;
3845;SDS011;1938;50.812;7.738;2022-09-17T18:23:59;7.20;;;1.50;;
3845;SDS011;1938;50.812;7.738;2022-09-17T18:26:26;4.23;;;1.57;;
3845;SDS011;1938;50.812;7.738;2022-09-17T18:28:52;3.30;;;1.63;;
3845;SDS011;1938;50.812;7.738;2022-09-17T18:31:20;4.53;;;1.63;;
3845;SDS011;1938;50.812;7.738;2022-09-17T18:36:35;6.27;;;1.77;;
3845;SDS011;1938;50.812;7.738;2022-09-17T18:39:02;13.10;;;2.27;;
3845;SDS011;1938;50.812;7.738;2022-09-17T18:41:33;4.37;;;1.50;;
3845;SDS011;1938;50.812;7.738;2022-09-17T18:44:01;6.13;;;1.43;;
3845;SDS011;1938;50.812;7.738;2022-09-17T18:46:27;9.23;;;1.90;;
3845;SDS011;1938;50.812;7.738;2022-09-17T18:48:53;5.73;;;1.87;;
3845;SDS011;1938;50.812;7.738;2022-09-17T18:51:20;11.07;;;1.83;;
3845;SDS011;1938;50.812;7.738;2022-09-17T18:53:46;12.73;;;2.63;;
3845;SDS011;1938;50.812;7.738;2022-09-17T18:56:15;7.83;;;1.90;;
3845;SDS011;1938;50.812;7.738;2022-09-17T18:58:50;8.27;;;2.10;;